createdAt,value
2018-06-04T00:01:28.690Z,15.10
2018-06-04T00:04:03.287Z,15.10
2018-06-04T00:06:34.278Z,15.00
2018-06-04T00:09:08.439Z,15.00
2018-06-04T00:11:36.643Z,15.00
2018-06-04T00:14:11.215Z,15.00
2018-06-04T00:16:39.451Z,14.90
2018-06-04T00:19:10.671Z,14.90
2018-06-04T00:21:50.416Z,14.90
2018-06-04T00:24:30.323Z,14.90
2018-06-04T00:27:00.725Z,14.80
2018-06-04T00:29:29.220Z,14.80
2018-06-04T00:31:58.171Z,14.80
2018-06-04T00:34:32.573Z,14.80
2018-06-04T00:37:12.981Z,14.70
2018-06-04T00:39:46.217Z,14.70
2018-06-04T00:42:17.702Z,14.70
2018-06-04T00:44:50.121Z,14.60
2018-06-04T00:47:21.640Z,14.60
2018-06-04T00:49:54.050Z,14.60
2018-06-04T00:52:25.560Z,14.60
2018-06-04T00:54:57.010Z,14.50
2018-06-04T00:57:29.409Z,14.50
2018-06-04T01:00:07.783Z,14.50
2018-06-04T01:02:46.410Z,14.50
2018-06-04T01:05:17.551Z,14.40
2018-06-04T01:07:48.155Z,14.40
2018-06-04T01:10:18.410Z,14.40
2018-06-04T01:12:46.717Z,14.40
2018-06-04T01:15:14.976Z,14.30
2018-06-04T01:17:50.479Z,14.30
2018-06-04T01:20:21.569Z,14.30
2018-06-04T01:22:53.987Z,14.20
2018-06-04T01:25:25.147Z,14.20
2018-06-04T01:30:27.810Z,14.20
2018-06-04T01:32:58.894Z,14.10
2018-06-04T01:35:29.427Z,14.10
2018-06-04T01:38:00.776Z,14.10
2018-06-04T01:40:31.430Z,14.10
2018-06-04T01:43:13.608Z,14.00
2018-06-04T01:45:43.893Z,14.00
2018-06-04T01:48:12.088Z,14.00
2018-06-04T01:50:47.998Z,14.00
2018-06-04T01:53:19.192Z,14.00
2018-06-04T01:55:47.393Z,14.00
2018-06-04T01:58:21.982Z,14.00
2018-06-04T02:00:52.947Z,14.00
2018-06-04T02:03:33.124Z,14.00
2018-06-04T02:06:01.353Z,13.90
2018-06-04T02:08:34.617Z,13.90
2018-06-04T02:11:06.896Z,13.90
2018-06-04T02:13:40.075Z,13.90
2018-06-04T02:16:08.610Z,13.90
2018-06-04T02:18:36.889Z,13.90
2018-06-04T02:21:05.291Z,13.80
2018-06-04T02:23:33.644Z,13.80
2018-06-04T02:26:08.322Z,13.90
2018-06-04T02:28:36.520Z,13.90
2018-06-04T02:31:08.018Z,13.80
2018-06-04T02:33:42.570Z,13.80
2018-06-04T02:36:15.731Z,13.80
2018-06-04T02:38:46.729Z,13.80
2018-06-04T02:41:15.024Z,13.80
2018-06-04T02:48:42.293Z,13.70
2018-06-04T02:51:13.804Z,13.70
2018-06-04T02:53:50.544Z,13.70
2018-06-04T02:56:18.850Z,13.60
2018-06-04T02:58:51.267Z,13.60
2018-06-04T03:01:24.690Z,13.60
2018-06-04T03:03:57.684Z,13.50
2018-06-04T03:06:29.033Z,13.50
2018-06-04T03:08:57.557Z,13.50
2018-06-04T03:11:26.050Z,13.50
2018-06-04T03:13:54.226Z,13.50
2018-06-04T03:16:26.639Z,13.50
2018-06-04T03:18:58.021Z,13.50
2018-06-04T03:21:29.545Z,13.50
2018-06-04T03:24:02.100Z,13.50
2018-06-04T03:26:30.397Z,13.50
2018-06-04T03:29:05.539Z,13.50
2018-06-04T03:31:49.194Z,13.40
2018-06-04T03:34:24.778Z,13.50
2018-06-04T03:39:25.184Z,13.50
2018-06-04T03:41:55.473Z,13.50
2018-06-04T03:44:23.754Z,13.50
2018-06-04T03:46:56.154Z,13.60
2018-06-04T03:49:27.180Z,13.60
2018-06-04T03:52:08.013Z,13.60
2018-06-04T03:54:39.126Z,13.70
2018-06-04T03:57:11.974Z,13.80
2018-06-04T03:59:42.963Z,13.90
2018-06-04T04:02:13.343Z,13.90
2018-06-04T04:04:43.651Z,14.00
2018-06-04T04:07:11.887Z,14.10
2018-06-04T04:09:45.105Z,14.20
2018-06-04T04:12:16.441Z,14.30
2018-06-04T04:14:50.753Z,14.30
2018-06-04T04:17:30.514Z,14.40
2018-06-04T04:20:01.642Z,14.50
2018-06-04T04:22:32.183Z,14.60
2018-06-04T04:25:03.644Z,14.60
2018-06-04T04:27:36.149Z,14.70
2018-06-04T04:30:08.614Z,14.70
2018-06-04T04:35:19.913Z,14.80
2018-06-04T04:37:54.437Z,14.80
2018-06-04T04:40:22.687Z,14.80
2018-06-04T04:42:55.735Z,14.80
2018-06-04T04:45:34.196Z,14.90
2018-06-04T04:48:07.813Z,14.50
2018-06-04T04:50:38.833Z,14.90
2018-06-04T04:53:07.135Z,15.00
2018-06-04T04:55:35.361Z,15.10
2018-06-04T04:58:08.621Z,15.20
2018-06-04T05:00:51.039Z,15.20
2018-06-04T05:03:31.471Z,15.30
2018-06-04T05:06:03.785Z,15.30
2018-06-04T05:08:35.314Z,15.40
2018-06-04T05:11:06.432Z,15.50
2018-06-04T05:13:34.675Z,15.60
2018-06-04T05:16:07.251Z,15.70
2018-06-04T05:18:35.513Z,15.80
2018-06-04T05:21:06.686Z,15.90
2018-06-04T05:23:45.956Z,16.00
2018-06-04T05:26:16.231Z,16.10
2018-06-04T05:28:44.680Z,16.10
2018-06-04T05:31:12.869Z,16.20
2018-06-04T05:33:52.683Z,16.20
2018-06-04T05:36:21.006Z,16.30
2018-06-04T05:38:49.313Z,16.30
2018-06-04T05:41:24.744Z,16.40
2018-06-04T05:43:55.884Z,16.30
2018-06-04T05:46:26.136Z,16.30
2018-06-04T05:48:54.574Z,16.30
2018-06-04T05:51:22.959Z,16.30
2018-06-04T05:53:51.328Z,16.50
2018-06-04T05:56:23.793Z,16.70
2018-06-04T06:01:34.217Z,16.90
2018-06-04T06:04:06.861Z,17.00
2018-06-04T06:06:43.142Z,17.10
2018-06-04T06:09:15.810Z,17.20
2018-06-04T06:11:50.631Z,17.30
2018-06-04T06:14:18.963Z,17.40
2018-06-04T06:16:47.181Z,17.50
2018-06-04T06:19:18.402Z,17.50
2018-06-04T06:21:46.908Z,17.50
2018-06-04T06:24:17.122Z,17.60
2018-06-04T06:26:45.905Z,17.60
2018-06-04T06:29:18.226Z,17.60
2018-06-04T06:31:48.992Z,17.70
2018-06-04T06:34:21.256Z,17.50
2018-06-04T06:36:59.735Z,17.50
2018-06-04T06:39:41.811Z,17.50
2018-06-04T06:42:10.334Z,17.60
2018-06-04T06:44:38.657Z,17.60
2018-06-04T06:47:06.962Z,17.60
2018-06-04T06:49:38.233Z,17.70
2018-06-04T06:52:12.915Z,17.70
2018-06-04T06:54:46.316Z,17.70
2018-06-04T06:57:22.950Z,17.80
2018-06-04T06:59:51.694Z,17.80
2018-06-04T07:02:21.960Z,17.90
2018-06-04T07:04:50.271Z,18.00
2018-06-04T07:07:21.325Z,18.10
2018-06-04T07:09:52.005Z,18.20
2018-06-04T07:12:27.288Z,18.40
2018-06-04T07:14:58.739Z,18.30
2018-06-04T07:17:30.102Z,18.10
2018-06-04T07:20:10.012Z,18.10
2018-06-04T07:22:38.343Z,18.20
2018-06-04T07:25:16.579Z,18.30
2018-06-04T07:27:48.936Z,18.40
2018-06-04T07:30:21.406Z,18.70
2018-06-04T07:32:53.875Z,18.80
2018-06-04T07:35:26.115Z,18.70
2018-06-04T07:37:58.702Z,18.70
2018-06-04T07:40:42.906Z,18.80
2018-06-04T07:43:14.181Z,18.80
2018-06-04T07:45:42.578Z,18.90
2018-06-04T07:48:10.938Z,19.00
2018-06-04T07:50:39.210Z,19.00
2018-06-04T07:53:13.907Z,19.10
2018-06-04T07:55:46.333Z,19.20
2018-06-04T07:58:19.199Z,19.20
2018-06-04T08:00:47.589Z,19.10
2018-06-04T08:03:15.871Z,19.10
2018-06-04T08:05:51.385Z,19.10
2018-06-04T08:08:19.667Z,19.20
2018-06-04T08:10:52.842Z,19.20
2018-06-04T08:13:22.978Z,19.10
2018-06-04T08:15:51.245Z,19.10
2018-06-04T08:18:23.637Z,19.30
2018-06-04T08:21:01.037Z,19.40
2018-06-04T08:23:33.498Z,19.50
2018-06-04T08:26:10.839Z,19.40
2018-06-04T08:28:45.371Z,19.30
2018-06-04T08:31:18.619Z,19.40
2018-06-04T08:33:53.291Z,19.40
2018-06-04T08:36:24.138Z,19.40
2018-06-04T08:38:52.313Z,19.30
2018-06-04T08:41:20.631Z,19.40
2018-06-04T08:43:55.233Z,19.40
2018-06-04T08:46:27.947Z,19.30
2018-06-04T08:48:56.181Z,19.30
2018-06-04T08:51:27.027Z,19.40
2018-06-04T08:53:55.665Z,19.30
2018-06-04T08:56:26.343Z,19.40
2018-06-04T08:58:57.687Z,19.60
2018-06-04T09:01:35.975Z,19.70
2018-06-04T09:04:12.076Z,19.80
2018-06-04T09:06:40.349Z,20.00
2018-06-04T09:09:15.080Z,20.20
2018-06-04T09:11:43.326Z,20.20
2018-06-04T09:14:16.950Z,20.10
2018-06-04T09:16:45.204Z,20.20
2018-06-04T09:19:18.385Z,20.40
2018-06-04T09:21:49.566Z,20.50
2018-06-04T09:24:17.850Z,20.70
2018-06-04T09:26:46.096Z,20.70
2018-06-04T09:29:17.058Z,20.70
2018-06-04T09:31:48.070Z,20.80
2018-06-04T09:34:20.669Z,21.00
2018-06-04T09:36:51.906Z,21.20
2018-06-04T09:39:27.552Z,21.20
2018-06-04T09:41:59.983Z,21.20
2018-06-04T09:44:31.270Z,21.30
2018-06-04T09:47:02.294Z,21.20
2018-06-04T09:49:30.541Z,21.30
2018-06-04T09:51:58.726Z,21.50
2018-06-04T09:54:30.006Z,21.50
2018-06-04T09:57:01.161Z,21.50
2018-06-04T10:02:01.789Z,21.70
2018-06-04T10:04:34.888Z,21.70
2018-06-04T10:07:06.203Z,21.70
2018-06-04T10:09:34.402Z,21.90
2018-06-04T10:12:03.133Z,21.80
2018-06-04T10:14:31.338Z,21.90
2018-06-04T10:17:02.139Z,21.90
2018-06-04T10:19:30.582Z,21.80
2018-06-04T10:21:58.896Z,22.00
2018-06-04T10:24:27.372Z,22.20
2018-06-04T10:27:07.185Z,22.50
2018-06-04T10:29:48.684Z,22.70
2018-06-04T10:32:20.112Z,23.00
2018-06-04T10:35:00.811Z,23.20
2018-06-04T10:37:35.401Z,23.30
2018-06-04T10:40:03.789Z,23.60
2018-06-04T10:42:40.783Z,23.90
2018-06-04T10:45:20.615Z,24.50
2018-06-04T10:47:54.114Z,25.00
2018-06-04T10:50:28.198Z,25.40
2018-06-04T10:53:01.641Z,25.20
2018-06-04T10:55:33.070Z,24.80
2018-06-04T10:58:06.305Z,24.40
2018-06-04T11:00:34.973Z,24.00
2018-06-04T11:03:16.518Z,24.20
2018-06-04T11:05:49.766Z,24.10
2018-06-04T11:08:36.913Z,23.90
2018-06-04T11:11:05.133Z,24.00
2018-06-04T11:13:33.504Z,24.50
2018-06-04T11:16:08.127Z,24.90
2018-06-04T11:18:36.394Z,25.00
2018-06-04T11:21:10.975Z,25.00
2018-06-04T11:23:45.161Z,24.90
2018-06-04T11:26:15.732Z,25.00
2018-06-04T11:28:50.324Z,25.30
2018-06-04T11:31:21.339Z,25.60
2018-06-04T11:33:53.866Z,25.80
2018-06-04T11:36:22.077Z,26.00
2018-06-04T11:38:50.260Z,26.30
2018-06-04T11:41:21.675Z,26.70
2018-06-04T11:43:58.651Z,27.20
2018-06-04T11:46:27.896Z,27.20
2018-06-04T11:48:56.266Z,26.50
2018-06-04T11:51:24.583Z,26.30
2018-06-04T11:53:57.975Z,26.10
2018-06-04T11:56:32.911Z,26.00
2018-06-04T11:59:01.322Z,26.20
2018-06-04T12:01:29.962Z,26.40
2018-06-04T12:04:00.442Z,26.60
2018-06-04T12:06:28.942Z,26.80
2018-06-04T12:08:59.265Z,26.80
2018-06-04T12:11:27.448Z,26.70
2018-06-04T12:14:01.939Z,26.60
2018-06-04T12:16:32.876Z,26.60
2018-06-04T12:19:05.176Z,26.80
2018-06-04T12:21:33.549Z,26.50
2018-06-04T12:24:01.793Z,26.70
2018-06-04T12:26:35.768Z,27.00
2018-06-04T12:29:05.978Z,27.10
2018-06-04T12:31:34.224Z,27.10
2018-06-04T12:34:16.336Z,27.40
2018-06-04T12:36:50.832Z,27.20
2018-06-04T12:39:21.768Z,27.00
2018-06-04T12:41:49.989Z,27.00
2018-06-04T12:44:29.851Z,27.00
2018-06-04T12:46:58.206Z,27.30
2018-06-04T12:49:26.450Z,27.50
2018-06-04T12:52:01.109Z,27.60
2018-06-04T12:54:29.362Z,27.50
2018-06-04T12:57:04.077Z,27.50
2018-06-04T12:59:32.244Z,27.50
2018-06-04T13:02:08.457Z,27.20
2018-06-04T13:04:39.521Z,26.90
2018-06-04T13:07:09.935Z,26.70
2018-06-04T13:09:38.161Z,26.50
2018-06-04T13:12:12.712Z,26.40
2018-06-04T13:14:41.187Z,26.60
2018-06-04T13:17:13.392Z,26.50
2018-06-04T13:19:44.659Z,26.60
2018-06-04T13:22:30.343Z,26.60
2018-06-04T13:24:59.328Z,26.80
2018-06-04T13:27:27.641Z,26.80
2018-06-04T13:29:55.941Z,26.90
2018-06-04T13:32:28.495Z,26.80
2018-06-04T13:34:56.788Z,26.90
2018-06-04T13:37:31.509Z,26.80
2018-06-04T13:39:59.780Z,26.70
2018-06-04T13:42:34.409Z,26.40
2018-06-04T13:45:02.952Z,26.40
2018-06-04T13:47:31.145Z,26.40
2018-06-04T13:50:05.909Z,26.40
2018-06-04T13:52:34.144Z,26.40
2018-06-04T13:55:10.241Z,26.20
2018-06-04T13:57:43.583Z,26.40
2018-06-04T14:00:14.100Z,26.60
2018-06-04T14:02:44.390Z,26.60
2018-06-04T14:05:12.520Z,26.70
2018-06-04T14:07:49.732Z,26.60
2018-06-04T14:10:20.761Z,26.30
2018-06-04T14:12:49.249Z,25.70
2018-06-04T14:15:17.514Z,25.60
2018-06-04T14:17:45.834Z,25.60
2018-06-04T14:20:21.334Z,25.70
2018-06-04T14:22:52.397Z,25.40
2018-06-04T14:25:22.882Z,25.40
2018-06-04T14:27:51.083Z,25.40
2018-06-04T14:30:19.431Z,25.50
2018-06-04T14:32:47.657Z,25.70
2018-06-04T14:35:18.800Z,25.40
2018-06-04T14:37:49.079Z,25.20
2018-06-04T14:40:17.353Z,25.00
2018-06-04T14:42:55.015Z,25.20
2018-06-04T14:45:23.228Z,25.40
2018-06-04T14:47:55.745Z,25.40
2018-06-04T14:50:24.049Z,25.50
2018-06-04T14:53:00.689Z,25.40
2018-06-04T14:55:28.991Z,25.50
2018-06-04T14:58:04.413Z,25.60
2018-06-04T15:00:39.002Z,25.70
2018-06-04T15:03:12.206Z,25.80
2018-06-04T15:05:47.749Z,25.70
2018-06-04T15:08:20.702Z,25.50
2018-06-04T15:10:49.137Z,25.40
2018-06-04T15:13:17.945Z,25.50
2018-06-04T15:15:50.185Z,25.50
2018-06-04T15:18:20.824Z,25.50
2018-06-04T15:20:54.273Z,25.50
2018-06-04T15:23:34.492Z,25.40
2018-06-04T15:26:02.843Z,25.30
2018-06-04T15:28:31.076Z,25.30
2018-06-04T15:31:03.446Z,25.40
2018-06-04T15:33:40.301Z,25.40
2018-06-04T15:36:08.776Z,25.40
2018-06-04T15:38:37.037Z,25.30
2018-06-04T15:41:05.313Z,25.10
2018-06-04T15:43:45.318Z,24.90
2018-06-04T15:48:47.119Z,24.90
2018-06-04T15:51:15.588Z,25.00
2018-06-04T15:53:43.763Z,24.90
2018-06-04T15:56:16.909Z,24.80
2018-06-04T15:58:48.345Z,24.80
2018-06-04T16:01:19.785Z,24.80
2018-06-04T16:03:50.299Z,24.70
2018-06-04T16:06:23.703Z,24.40
2018-06-04T16:08:57.034Z,24.20
2018-06-04T16:11:27.330Z,23.90
2018-06-04T16:13:55.572Z,23.90
2018-06-04T16:16:27.795Z,24.00
2018-06-04T16:19:01.029Z,23.90
2018-06-04T16:21:35.181Z,23.90
2018-06-04T16:24:03.605Z,23.80
2018-06-04T16:26:31.789Z,23.80
2018-06-04T16:29:09.722Z,23.80
2018-06-04T16:31:39.916Z,23.80
2018-06-04T16:34:08.086Z,23.80
2018-06-04T16:36:39.251Z,23.80
2018-06-04T16:39:10.903Z,23.60
2018-06-04T16:41:43.448Z,23.50
2018-06-04T16:44:13.831Z,23.40
2018-06-04T16:46:42.301Z,23.30
2018-06-04T16:49:24.502Z,23.30
2018-06-04T16:51:55.731Z,23.30
2018-06-04T16:54:24.024Z,23.20
2018-06-04T16:56:55.153Z,23.10
2018-06-04T16:59:25.595Z,22.80
2018-06-04T17:01:55.919Z,22.60
2018-06-04T17:04:25.992Z,22.40
2018-06-04T17:06:56.963Z,22.20
2018-06-04T17:09:35.662Z,22.10
2018-06-04T17:12:07.160Z,22.10
2018-06-04T17:14:42.415Z,22.00
2018-06-04T17:17:13.410Z,21.90
2018-06-04T17:19:41.590Z,21.80
2018-06-04T17:22:23.598Z,21.70
2018-06-04T17:25:03.662Z,21.50
2018-06-04T17:27:31.886Z,21.40
2018-06-04T17:30:05.035Z,21.30
2018-06-04T17:32:35.164Z,21.10
2018-06-04T17:35:03.430Z,21.10
2018-06-04T17:37:39.511Z,21.10
2018-06-04T17:40:11.878Z,21.00
2018-06-04T17:42:43.364Z,21.00
2018-06-04T17:45:19.851Z,21.10
2018-06-04T17:47:52.390Z,21.10
2018-06-04T17:50:24.099Z,21.00
2018-06-04T17:52:58.184Z,21.10
2018-06-04T17:55:29.331Z,21.00
2018-06-04T17:57:57.689Z,21.00
2018-06-04T18:00:26.027Z,20.90
2018-06-04T18:02:59.398Z,20.90
2018-06-04T18:05:33.923Z,20.80
2018-06-04T18:08:04.867Z,20.70
2018-06-04T18:10:37.442Z,20.60
2018-06-04T18:13:09.890Z,20.50
2018-06-04T18:15:43.422Z,20.40
2018-06-04T18:18:21.068Z,20.30
2018-06-04T18:20:58.069Z,20.30
2018-06-04T18:23:38.088Z,20.20
2018-06-04T18:26:06.280Z,20.20
2018-06-04T18:28:39.658Z,20.20
2018-06-04T18:31:10.724Z,20.10
2018-06-04T18:33:39.006Z,20.00
2018-06-04T18:36:07.282Z,19.90
2018-06-04T18:38:42.561Z,19.80
2018-06-04T18:41:13.558Z,19.70
2018-06-04T18:43:41.847Z,19.70
2018-06-04T18:46:15.042Z,19.70
2018-06-04T18:48:52.284Z,19.60
2018-06-04T18:51:23.454Z,19.50
2018-06-04T18:53:51.662Z,19.40
2018-06-04T18:56:23.002Z,19.40
2018-06-04T18:59:05.793Z,19.30
2018-06-04T19:01:34.023Z,19.30
2018-06-04T19:04:11.831Z,19.30
2018-06-04T19:06:42.206Z,19.20
2018-06-04T19:09:11.009Z,19.20
2018-06-04T19:11:51.283Z,19.20
2018-06-04T19:14:38.736Z,19.10
2018-06-04T19:17:19.035Z,19.00
2018-06-04T19:19:50.383Z,19.00
2018-06-04T19:22:20.825Z,19.00
2018-06-04T19:24:49.066Z,19.00
2018-06-04T19:27:17.256Z,19.00
2018-06-04T19:29:48.497Z,19.00
2018-06-04T19:32:20.439Z,19.00
2018-06-04T19:34:52.909Z,19.00
2018-06-04T19:37:21.111Z,18.90
2018-06-04T19:39:53.385Z,18.90
2018-06-04T19:42:36.954Z,18.90
2018-06-04T19:45:11.457Z,18.80
2018-06-04T19:47:42.437Z,18.70
2018-06-04T19:50:11.298Z,18.70
2018-06-04T19:52:42.289Z,18.60
2018-06-04T19:55:10.474Z,18.50
2018-06-04T19:57:50.638Z,18.40
2018-06-04T20:00:21.581Z,18.40
2018-06-04T20:02:49.770Z,18.40
2018-06-04T20:05:25.214Z,18.40
2018-06-04T20:07:59.552Z,18.40
2018-06-04T20:10:32.724Z,18.40
2018-06-04T20:13:02.919Z,18.20
2018-06-04T20:15:31.109Z,18.20
2018-06-04T20:18:05.733Z,18.10
2018-06-04T20:20:40.027Z,18.10
2018-06-04T20:23:16.904Z,18.10
2018-06-04T20:25:45.310Z,18.10
2018-06-04T20:28:13.486Z,18.00
2018-06-04T20:30:54.042Z,18.00
2018-06-04T20:33:22.170Z,17.80
2018-06-04T20:35:57.766Z,17.70
2018-06-04T20:38:32.118Z,17.70
2018-06-04T20:41:06.449Z,17.70
2018-06-04T20:43:37.409Z,17.70
2018-06-04T20:46:05.727Z,17.70
2018-06-04T20:48:33.941Z,17.70
2018-06-04T20:51:05.228Z,17.70
2018-06-04T20:53:39.436Z,17.70
2018-06-04T20:56:07.885Z,17.60
2018-06-04T20:58:36.100Z,17.60
2018-06-04T21:01:08.416Z,17.50
2018-06-04T21:03:43.768Z,17.50
2018-06-04T21:06:18.146Z,17.40
2018-06-04T21:08:50.627Z,17.40
2018-06-04T21:11:21.625Z,17.40
2018-06-04T21:13:49.999Z,17.40
2018-06-04T21:16:18.190Z,17.40
2018-06-04T21:18:58.189Z,17.40
2018-06-04T21:21:28.387Z,17.30
2018-06-04T21:23:56.559Z,17.30
2018-06-04T21:26:27.571Z,17.20
2018-06-04T21:28:55.822Z,17.10
2018-06-04T21:31:24.039Z,17.10
2018-06-04T21:33:55.257Z,17.00
2018-06-04T21:36:33.974Z,17.00
2018-06-04T21:39:07.653Z,17.00
2018-06-04T21:41:35.867Z,16.90
2018-06-04T21:44:11.219Z,16.90
2018-06-04T21:46:46.612Z,16.80
2018-06-04T21:49:19.231Z,16.80
2018-06-04T21:51:52.199Z,16.80
2018-06-04T21:54:20.493Z,16.80
2018-06-04T21:56:48.888Z,16.80
2018-06-04T21:59:17.130Z,16.70
2018-06-04T22:01:48.523Z,16.70
2018-06-04T22:07:01.572Z,16.70
2018-06-04T22:09:32.638Z,16.70
2018-06-04T22:12:08.835Z,16.60
2018-06-04T22:14:36.995Z,16.60
2018-06-04T22:17:11.387Z,16.70
2018-06-04T22:19:44.395Z,16.70
2018-06-04T22:22:14.753Z,16.70
2018-06-04T22:24:42.901Z,16.70
2018-06-04T22:27:20.505Z,16.70
2018-06-04T22:29:48.755Z,16.60
2018-06-04T22:32:21.358Z,16.60
2018-06-04T22:34:49.535Z,16.60
2018-06-04T22:37:22.142Z,16.60
2018-06-04T22:39:56.733Z,16.60
2018-06-04T22:42:28.003Z,16.60
2018-06-04T22:44:59.210Z,16.60
2018-06-04T22:47:44.343Z,16.50
2018-06-04T22:50:12.798Z,16.50
2018-06-04T22:52:41.226Z,16.60
2018-06-04T22:55:09.495Z,16.50
2018-06-04T22:57:40.459Z,16.50
2018-06-04T23:00:14.251Z,16.60
2018-06-04T23:02:45.102Z,16.60
2018-06-04T23:05:13.617Z,16.50
2018-06-04T23:07:41.868Z,16.50
2018-06-04T23:10:13.314Z,16.50
2018-06-04T23:12:46.820Z,16.40
2018-06-04T23:15:20.012Z,16.30
2018-06-04T23:17:55.674Z,16.30
2018-06-04T23:20:30.227Z,16.20
2018-06-04T23:22:58.462Z,16.20
2018-06-04T23:25:32.923Z,16.20
2018-06-04T23:28:08.442Z,16.20
2018-06-04T23:30:39.473Z,16.20
2018-06-04T23:33:19.239Z,16.10
2018-06-04T23:35:59.005Z,16.10
2018-06-04T23:38:27.253Z,16.10
2018-06-04T23:40:59.813Z,16.10
2018-06-04T23:43:28.197Z,16.00
2018-06-04T23:45:59.110Z,16.00
2018-06-04T23:48:27.513Z,16.00
2018-06-04T23:50:55.958Z,16.00
2018-06-04T23:53:24.183Z,16.00
2018-06-04T23:56:00.234Z,16.00
2018-06-04T23:58:35.070Z,16.00
